This is the latest recevied weather packets stored in our database for station/object W5HKR. If no packets are shown the sender has not sent any weather packets the latest 10 day(s).
| Time | Temp. | Humidity | Pressure | Rain* | Wind** | Luminosity | Snow |
|---|---|---|---|---|---|---|---|
| 1777894408 | 18.33° C | 91% | 990.6 hPa | 0 mm | - | - | - |
| 1777894109 | 18.33° C | 91% | 990.6 hPa | 0 mm | - | - | - |
| 1777893808 | 18.33° C | 91% | 990.6 hPa | 0 mm | - | - | - |
| 1777893508 | 15.56° C | 87% | 986.1 hPa | 0 mm | - | - | - |
| 1777893359 | 18.33° C | 91% | 990.6 hPa | 0 mm | - | - | - |
| 1777893209 | 15.56° C | 87% | 986.4 hPa | 0 mm | - | - | - |
| 1777892908 | 15.56° C | 86% | 986.5 hPa | 0 mm | - | - | - |
| 1777892609 | 18.33° C | 91% | 990.6 hPa | 0 mm | - | - | - |
| 1777892280 | 16.11° C | 86% | 986.5 hPa | 0 mm | - | - | - |
| 1777892008 | 18.33° C | 91% | 990.6 hPa | 0 mm | - | - | - |
| 1777891708 | 18.33° C | 91% | 990.6 hPa | 0 mm | - | - | - |
| 1777891408 | 16.11° C | 86% | 986.1 hPa | 0 mm | - | - | - |
| 1777891200 | 16.11° C | 86% | 986.5 hPa | 0 mm | - | - | - |
| 1777891108 | 18.33° C | 91% | 990.6 hPa | 0 mm | - | - | - |
| 1777890810 | 16.11° C | 86% | 986.5 hPa | 0 mm | - | - | - |
| 1777890509 | 16.11° C | 85% | 986.1 hPa | 0 mm | - | - | - |
| 1777890208 | 16.11° C | 85% | 986.1 hPa | 0 mm | - | - | - |
| 1777890119 | 16.11° C | 85% | 986.2 hPa | 0 mm | - | - | - |
| 1777889908 | 16.11° C | 85% | 986.1 hPa | 0 mm | - | - | - |
| 1777889608 | 18.33° C | 91% | 990.6 hPa | 0 mm | - | - | - |
| 1777889308 | 18.33° C | 91% | 990.6 hPa | 0 mm | - | - | - |
| 1777889041 | 18.33° C | 91% | 990.6 hPa | 0 mm | - | - | - |
| 1777889009 | 18.33° C | 91% | 990.6 hPa | 0 mm | - | - | - |
| 1777888709 | 18.33° C | 91% | 990.6 hPa | 0 mm | - | - | - |
| 1777888409 | 18.33° C | 91% | 990.6 hPa | 0 mm | - | - | - |
* Rain latest hour (hover to see other rain measurements)
** Current wind speed in m/s (hover to see current wind gust speed)